Time;durP1;ratioP1;P1;durP2;ratioP2;P2;SDS_P1;SDS_P2;PMS_P1;PMS_P2;Temp;Humidity;BMP_temperature;BMP_pressure;BME280_temperature;BME280_humidity;BME280_pressure;Samples;Min_cycle;Max_cycle;Signal;HPM_P1;HPM_P2
2022/03/15 00:01:07;;;;;;;27.35;14.95;;;;;;;5.57;100.00;102784.34;5073260;28;20507;-66
2022/03/15 00:03:36;;;;;;;23.17;13.60;;;;;;;5.53;100.00;102785.28;5073268;28;20499;-58
2022/03/15 00:06:06;;;;;;;26.50;13.93;;;;;;;5.46;100.00;102788.84;5073510;28;20052;-65
2022/03/15 00:08:36;;;;;;;26.60;13.55;;;;;;;5.44;100.00;102788.03;5073090;28;20040;-65
2022/03/15 00:11:09;;;;;;;27.85;13.85;;;;;;;5.49;100.00;102787.97;5073201;28;20055;-65
2022/03/15 00:13:38;;;;;;;25.15;13.02;;;;;;;5.50;100.00;102792.31;5071856;28;20078;-65
2022/03/15 00:16:09;;;;;;;23.52;12.60;;;;;;;5.52;100.00;102780.97;5072957;28;20488;-65
2022/03/15 00:18:38;;;;;;;26.00;13.23;;;;;;;5.46;100.00;102786.25;5072672;28;20526;-58
2022/03/15 00:21:10;;;;;;;22.67;12.70;;;;;;;5.44;100.00;102781.94;5072198;28;20048;-65
2022/03/15 00:23:39;;;;;;;23.48;12.38;;;;;;;5.39;100.00;102782.84;5073340;28;20048;-58
2022/03/15 00:26:07;;;;;;;23.17;13.55;;;;;;;5.36;100.00;102784.66;5072801;28;20048;-59
2022/03/15 00:28:35;;;;;;;28.15;14.43;;;;;;;5.38;100.00;102777.66;5072612;28;20040;-58
2022/03/15 00:31:05;;;;;;;23.00;12.80;;;;;;;5.36;100.00;102784.66;5072710;28;20048;-66
2022/03/15 00:33:33;;;;;;;23.35;13.00;;;;;;;5.33;100.00;102776.84;5072863;28;20529;-65
2022/03/15 00:36:01;;;;;;;24.67;13.43;;;;;;;5.32;100.00;102764.69;5072746;28;20059;-65
2022/03/15 00:38:31;;;;;;;23.88;12.80;;;;;;;5.29;100.00;102764.72;5072382;28;20098;-65
2022/03/15 00:40:59;;;;;;;23.27;12.63;;;;;;;5.25;100.00;102759.53;5072632;28;20044;-58
2022/03/15 00:43:29;;;;;;;20.50;12.60;;;;;;;5.22;100.00;102764.81;5070974;28;20059;-64
2022/03/15 00:45:58;;;;;;;24.13;12.40;;;;;;;5.15;100.00;102759.66;5071186;28;20052;-65
2022/03/15 00:48:27;;;;;;;28.38;13.60;;;;;;;5.23;100.00;102768.25;5072413;28;20117;-65
2022/03/15 00:50:58;;;;;;;22.48;12.75;;;;;;;5.16;100.00;102764.00;5072396;28;20048;-58
2022/03/15 00:53:26;;;;;;;22.38;13.23;;;;;;;5.21;100.00;102767.44;5072236;28;20203;-65
2022/03/15 00:55:55;;;;;;;24.73;12.60;;;;;;;5.14;100.00;102766.63;5072392;28;20049;-65
2022/03/15 00:58:24;;;;;;;23.30;12.70;;;;;;;5.14;100.00;102766.63;5071755;28;20049;-57
2022/03/15 01:00:52;;;;;;;21.10;12.27;;;;;;;5.18;100.00;102765.72;5072237;28;20057;-65
2022/03/15 01:03:21;;;;;;;23.13;12.52;;;;;;;5.22;100.00;102763.91;5070766;28;20052;-65
2022/03/15 01:05:50;;;;;;;25.80;13.32;;;;;;;5.13;100.00;102759.69;5072376;28;20068;-57
2022/03/15 01:08:18;;;;;;;23.75;13.02;;;;;;;5.12;100.00;102765.78;5071815;28;20048;-57
2022/03/15 01:10:47;;;;;;;22.13;13.20;;;;;;;5.10;100.00;102758.84;5072072;28;20060;-64
2022/03/15 01:13:17;;;;;;;23.70;13.73;;;;;;;5.08;100.00;102767.56;5072183;28;20052;-58
2022/03/15 01:15:45;;;;;;;26.30;13.32;;;;;;;5.08;100.00;102756.25;5072231;28;20568;-57
2022/03/15 01:18:15;;;;;;;25.27;12.10;;;;;;;5.11;100.00;102755.38;5071919;28;20056;-64
2022/03/15 01:20:48;;;;;;;19.05;11.15;;;;;;;5.04;100.00;102750.22;5071820;28;20079;-64
2022/03/15 01:23:16;;;;;;;22.17;12.48;;;;;;;5.00;100.00;102751.13;5071918;28;20082;-57
2022/03/15 01:25:44;;;;;;;21.73;12.13;;;;;;;4.99;100.00;102745.94;5071892;28;20053;-64
2022/03/15 01:28:15;;;;;;;22.42;11.93;;;;;;;5.05;100.00;102748.47;5072062;28;20045;-65
2022/03/15 01:30:46;;;;;;;22.45;11.57;;;;;;;5.07;100.00;102744.97;5072282;28;20528;-65
2022/03/15 01:33:14;;;;;;;24.83;12.55;;;;;;;5.06;100.00;102740.63;5075974;28;20079;-64
2022/03/15 01:35:45;;;;;;;20.98;13.00;;;;;;;5.03;100.00;102737.19;5075029;28;20048;-58
2022/03/15 01:38:13;;;;;;;27.15;12.63;;;;;;;5.02;100.00;102730.28;5075956;28;20052;-58
2022/03/15 01:40:41;;;;;;;27.17;12.55;;;;;;;5.07;100.00;102718.91;5076098;28;20437;-64
2022/03/15 01:43:09;;;;;;;28.15;13.60;;;;;;;4.97;100.00;102726.84;5075774;28;20052;-65
2022/03/15 01:45:43;;;;;;;27.75;13.40;;;;;;;4.95;100.00;102724.25;5075822;28;20063;-64
2022/03/15 01:48:13;;;;;;;23.83;13.02;;;;;;;5.01;100.00;102723.31;5075668;28;20053;-65
2022/03/15 01:50:44;;;;;;;23.95;13.00;;;;;;;5.02;100.00;102719.84;5074384;28;20064;-64
2022/03/15 01:53:15;;;;;;;24.80;12.70;;;;;;;4.97;100.00;102713.81;5075668;28;20044;-57
2022/03/15 01:55:43;;;;;;;25.60;12.23;;;;;;;5.01;100.00;102711.13;5075827;28;20044;-58
2022/03/15 01:58:11;;;;;;;27.23;12.95;;;;;;;5.00;100.00;102718.97;5075362;28;20048;-58
2022/03/15 02:00:42;;;;;;;23.90;12.90;;;;;;;4.96;100.00;102717.28;5075652;28;20057;-64
2022/03/15 02:03:10;;;;;;;26.67;12.55;;;;;;;4.93;100.00;102719.94;5075205;28;20045;-64
2022/03/15 02:05:40;;;;;;;22.33;12.50;;;;;;;4.93;100.00;102715.56;5075308;28;20396;-58
2022/03/15 02:08:10;;;;;;;25.40;12.55;;;;;;;4.90;100.00;102720.84;5075117;28;20040;-58
2022/03/15 02:10:38;;;;;;;23.25;13.07;;;;;;;4.90;100.00;102720.84;5075309;28;20120;-58
2022/03/15 02:13:06;;;;;;;22.48;11.70;;;;;;;4.92;100.00;102708.63;5075091;28;20470;-57
2022/03/15 02:15:35;;;;;;;21.98;12.80;;;;;;;4.90;100.00;102711.25;5074709;28;20041;-65
2022/03/15 02:18:04;;;;;;;25.55;13.02;;;;;;;4.99;100.00;102709.41;5073735;28;20380;-65
2022/03/15 02:20:34;;;;;;;28.67;12.20;;;;;;;5.01;100.00;102702.47;5074814;28;20041;-65
2022/03/15 02:23:02;;;;;;;20.95;11.80;;;;;;;5.00;100.00;102698.97;5075096;28;20054;-65
2022/03/15 02:25:30;;;;;;;21.70;12.68;;;;;;;4.96;100.00;102691.22;5075198;28;20048;-65
2022/03/15 02:27:58;;;;;;;28.58;12.35;;;;;;;4.99;100.00;102688.56;5074765;28;20048;-65
2022/03/15 02:30:27;;;;;;;25.02;12.00;;;;;;;4.97;100.00;102691.19;5075107;28;20096;-64
2022/03/15 02:32:55;;;;;;;23.05;12.05;;;;;;;4.90;100.00;102684.31;5075024;28;20621;-64
2022/03/15 02:35:23;;;;;;;22.45;12.00;;;;;;;4.96;100.00;102683.38;5074943;28;20055;-64
2022/03/15 02:37:52;;;;;;;21.98;12.57;;;;;;;4.98;100.00;102682.50;5074897;28;20532;-65
2022/03/15 02:40:22;;;;;;;22.25;12.38;;;;;;;5.02;100.00;102683.31;5075001;28;20568;-64
2022/03/15 02:42:50;;;;;;;24.58;13.77;;;;;;;5.03;100.00;102680.69;5074319;28;20068;-64
2022/03/15 02:45:19;;;;;;;24.45;12.88;;;;;;;4.98;100.00;102677.28;5074741;28;20552;-64
2022/03/15 02:47:48;;;;;;;21.65;11.88;;;;;;;4.99;100.00;102671.19;5074488;28;20513;-64
2022/03/15 02:50:17;;;;;;;21.00;12.30;;;;;;;4.97;100.00;102677.28;5074551;28;20044;-65
2022/03/15 02:52:45;;;;;;;22.30;12.45;;;;;;;4.97;100.00;102675.53;5074527;28;20356;-64
2022/03/15 02:55:16;;;;;;;21.92;12.68;;;;;;;5.00;100.00;102672.03;5074347;28;20052;-64
2022/03/15 02:57:45;;;;;;;20.40;11.98;;;;;;;5.02;100.00;102675.50;5074336;28;20044;-64
2022/03/15 03:00:15;;;;;;;19.88;11.50;;;;;;;5.11;100.00;102671.91;5074451;28;20483;-65
2022/03/15 03:02:43;;;;;;;20.13;10.63;;;;;;;5.08;100.00;102672.81;5074489;28;20040;-64
2022/03/15 03:05:12;;;;;;;22.33;11.73;;;;;;;5.00;100.00;102664.22;5074404;28;20076;-65
2022/03/15 03:07:45;;;;;;;22.00;11.70;;;;;;;5.00;100.00;102670.28;5074044;28;20381;-64
2022/03/15 03:10:16;;;;;;;22.08;12.50;;;;;;;4.98;100.00;102660.78;5072954;28;20056;-64
2022/03/15 03:12:46;;;;;;;23.17;12.52;;;;;;;4.97;100.00;102659.91;5074204;28;20080;-64
2022/03/15 03:15:19;;;;;;;24.58;13.02;;;;;;;5.00;100.00;102665.06;5074077;28;20049;-65
2022/03/15 03:17:47;;;;;;;26.90;14.23;;;;;;;4.99;100.00;102652.03;5074127;28;20056;-64
2022/03/15 03:20:19;;;;;;;23.13;12.65;;;;;;;4.99;100.00;102652.94;5074057;28;20072;-64
2022/03/15 03:22:51;;;;;;;21.92;12.70;;;;;;;4.97;100.00;102649.47;5074152;28;20079;-65
2022/03/15 03:25:20;;;;;;;22.10;13.10;;;;;;;4.95;100.00;102653.84;5074098;28;20041;-65
2022/03/15 03:27:48;;;;;;;27.98;14.13;;;;;;;4.96;100.00;102649.50;5074198;28;20376;-64
2022/03/15 03:30:16;;;;;;;26.65;13.85;;;;;;;4.93;100.00;102646.94;5073988;28;20094;-64
2022/03/15 03:32:45;;;;;;;28.73;15.05;;;;;;;4.92;100.00;102643.44;5072554;28;20053;-65
2022/03/15 03:35:14;;;;;;;25.15;14.23;;;;;;;4.99;100.00;102644.22;5073646;28;20040;-63
2022/03/15 03:37:42;;;;;;;24.23;14.23;;;;;;;4.98;100.00;102645.97;5073894;28;20053;-64
2022/03/15 03:40:10;;;;;;;25.27;13.70;;;;;;;4.93;100.00;102642.56;5073519;28;20040;-64
2022/03/15 03:42:42;;;;;;;25.42;13.52;;;;;;;4.94;100.00;102643.44;5072870;28;20080;-63
2022/03/15 03:45:11;;;;;;;29.60;14.27;;;;;;;4.90;100.00;102643.47;5071654;28;20051;-65
2022/03/15 03:47:39;;;;;;;24.92;13.38;;;;;;;5.02;100.00;102639.84;5073319;28;20523;-69
2022/03/15 03:50:09;;;;;;;24.80;13.73;;;;;;;5.04;100.00;102638.06;5073379;28;20075;-64
2022/03/15 03:52:38;;;;;;;22.30;13.07;;;;;;;5.02;100.00;102641.59;5073114;28;20131;-65
2022/03/15 03:55:07;;;;;;;23.45;12.70;;;;;;;5.00;100.00;102635.53;5072686;28;20048;-64
2022/03/15 03:57:37;;;;;;;25.42;13.48;;;;;;;5.01;100.00;102639.88;5073413;28;20064;-64
2022/03/15 04:00:08;;;;;;;22.58;13.63;;;;;;;4.95;100.00;102635.59;5073171;28;20106;-64
2022/03/15 04:02:37;;;;;;;26.63;13.98;;;;;;;4.89;100.00;102646.09;5073082;28;20045;-64
2022/03/15 04:05:07;;;;;;;26.70;15.13;;;;;;;4.83;100.00;102646.19;5072998;28;20045;-64
2022/03/15 04:07:35;;;;;;;23.98;13.45;;;;;;;4.85;100.00;102641.78;5073257;28;20100;-64
2022/03/15 04:10:04;;;;;;;29.48;14.20;;;;;;;4.90;100.00;102642.59;5073313;28;20510;-64
2022/03/15 04:12:34;;;;;;;25.17;14.27;;;;;;;4.96;100.00;102642.50;5073379;28;20442;-64
2022/03/15 04:15:02;;;;;;;27.40;15.20;;;;;;;4.87;100.00;102643.50;5073017;28;20533;-64
2022/03/15 04:17:34;;;;;;;28.52;15.82;;;;;;;4.85;100.00;102642.69;5072961;28;20072;-64
2022/03/15 04:20:03;;;;;;;25.08;14.07;;;;;;;4.86;100.00;102638.31;5072901;28;20052;-64
2022/03/15 04:22:31;;;;;;;29.63;15.43;;;;;;;4.80;100.00;102639.25;5072718;28;20040;-64
2022/03/15 04:25:00;;;;;;;25.42;14.48;;;;;;;4.85;100.00;102640.06;5072736;28;20109;-64
2022/03/15 04:27:28;;;;;;;23.90;14.38;;;;;;;4.88;100.00;102647.84;5072952;28;20091;-64
2022/03/15 04:29:56;;;;;;;27.27;15.05;;;;;;;4.89;100.00;102652.19;5072915;28;20036;-64
2022/03/15 04:32:24;;;;;;;28.95;14.75;;;;;;;4.94;100.00;102646.06;5072701;28;20387;-64
2022/03/15 04:34:54;;;;;;;29.83;14.70;;;;;;;4.97;100.00;102651.22;5072759;28;20041;-64
2022/03/15 04:37:23;;;;;;;26.65;14.43;;;;;;;4.99;100.00;102654.66;5073032;28;20440;-64
2022/03/15 04:39:53;;;;;;;25.95;15.32;;;;;;;4.95;100.00;102656.47;5072670;28;20064;-63
2022/03/15 04:42:22;;;;;;;26.73;14.30;;;;;;;4.97;100.00;102652.06;5072417;28;20558;-63
2022/03/15 04:44:51;;;;;;;26.60;13.60;;;;;;;4.97;100.00;102648.63;5072361;28;20052;-64
2022/03/15 04:47:19;;;;;;;31.60;14.88;;;;;;;4.98;100.00;102642.53;5072374;28;20048;-64
2022/03/15 04:49:49;;;;;;;26.33;14.80;;;;;;;4.98;100.00;102640.75;5072409;28;20070;-64
2022/03/15 04:52:20;;;;;;;25.30;14.15;;;;;;;5.01;100.00;102645.09;5072342;28;20051;-64
2022/03/15 04:54:48;;;;;;;25.23;13.55;;;;;;;5.04;100.00;102632.00;5072610;28;20044;-64
2022/03/15 04:57:17;;;;;;;23.02;13.52;;;;;;;4.99;100.00;102634.69;5072358;28;20395;-65
2022/03/15 04:59:46;;;;;;;27.00;13.75;;;;;;;4.96;100.00;102631.22;5072149;28;20064;-65
2022/03/15 05:02:16;;;;;;;26.52;13.95;;;;;;;4.99;100.00;102625.97;5072453;28;20049;-64
2022/03/15 05:04:45;;;;;;;25.13;13.48;;;;;;;4.94;100.00;102630.41;5072389;28;20064;-65
2022/03/15 05:07:13;;;;;;;21.20;12.50;;;;;;;4.97;100.00;102622.53;5072147;28;20068;-65
2022/03/15 05:12:26;;;;;;;23.90;13.35;;;;;;;5.02;100.00;102629.41;5071290;28;20060;-64
2022/03/15 05:14:54;;;;;;;26.77;13.45;;;;;;;4.98;100.00;102621.66;5071417;28;20048;-66
2022/03/15 05:17:22;;;;;;;29.80;14.05;;;;;;;5.01;100.00;102624.22;5071520;28;20075;-65
2022/03/15 05:19:53;;;;;;;23.85;13.90;;;;;;;4.93;100.00;102623.47;5071549;28;20084;-64
2022/03/15 05:22:22;;;;;;;23.60;13.93;;;;;;;4.96;100.00;102621.66;5072039;28;20491;-64
2022/03/15 05:24:51;;;;;;;25.90;14.15;;;;;;;4.97;100.00;102622.53;5071836;28;20132;-64
2022/03/15 05:27:19;;;;;;;26.27;14.35;;;;;;;4.93;100.00;102611.28;5071747;28;20048;-65
2022/03/15 05:29:48;;;;;;;25.17;14.55;;;;;;;4.91;100.00;102620.88;5070747;28;20045;-65
2022/03/15 05:32:16;;;;;;;28.83;14.55;;;;;;;4.92;100.00;102617.38;5071935;28;20047;-64
2022/03/15 05:34:44;;;;;;;27.83;14.35;;;;;;;4.90;100.00;102614.78;5071806;28;20052;-64
2022/03/15 05:37:17;;;;;;;23.50;14.90;;;;;;;4.89;100.00;102617.41;5071896;28;20098;-64
2022/03/15 05:39:45;;;;;;;30.10;15.90;;;;;;;4.92;100.00;102622.56;5072099;28;20403;-64
2022/03/15 05:42:19;;;;;;;27.80;14.65;;;;;;;4.91;100.00;102608.69;5071715;28;20052;-63
2022/03/15 05:44:47;;;;;;;27.63;14.52;;;;;;;4.91;100.00;102608.69;5071878;28;20041;-64
2022/03/15 05:47:17;;;;;;;26.00;13.95;;;;;;;4.98;100.00;102613.84;5071821;28;20128;-63
2022/03/15 05:49:51;;;;;;;24.25;14.02;;;;;;;4.91;100.00;102618.28;5072032;28;20522;-63
2022/03/15 05:52:20;;;;;;;24.48;14.40;;;;;;;4.96;100.00;102616.44;5070513;28;20056;-63
2022/03/15 05:54:48;;;;;;;27.27;14.48;;;;;;;4.98;100.00;102609.47;5071605;28;20048;-63
2022/03/15 05:57:16;;;;;;;23.02;13.07;;;;;;;4.99;100.00;102619.03;5071558;28;20127;-64
2022/03/15 05:59:46;;;;;;;20.95;11.95;;;;;;;5.00;100.00;102617.28;5071539;28;20499;-63
2022/03/15 06:02:16;;;;;;;26.10;14.18;;;;;;;4.94;100.00;102612.16;5069990;28;20458;-64
2022/03/15 06:04:45;;;;;;;24.77;13.63;;;;;;;4.98;100.00;102613.84;5071683;28;20052;-64
2022/03/15 06:07:13;;;;;;;24.30;13.50;;;;;;;4.98;100.00;102611.22;5071515;28;20102;-63
2022/03/15 06:09:43;;;;;;;24.02;14.02;;;;;;;5.02;100.00;102610.31;5071447;28;20044;-64
2022/03/15 06:12:13;;;;;;;29.13;15.07;;;;;;;5.03;100.00;102605.06;5071546;28;20491;-63
2022/03/15 06:14:41;;;;;;;23.25;14.73;;;;;;;5.05;100.00;102600.66;5071662;28;20057;-64
2022/03/15 06:17:11;;;;;;;27.35;14.80;;;;;;;4.97;100.00;102597.31;5071849;28;20110;-63
2022/03/15 06:19:39;;;;;;;27.83;15.85;;;;;;;4.99;100.00;102603.38;5075132;28;20048;-63
2022/03/15 06:22:08;;;;;;;26.55;15.57;;;;;;;5.00;100.00;102605.09;5075244;28;20399;-64
2022/03/15 06:24:37;;;;;;;25.48;15.48;;;;;;;5.01;100.00;102593.78;5075035;28;20040;-64
2022/03/15 06:27:05;;;;;;;28.08;15.00;;;;;;;5.03;100.00;102602.47;5074903;28;20062;-64
2022/03/15 06:29:38;;;;;;;29.70;14.70;;;;;;;5.06;100.00;102591.97;5074963;28;20124;-63
2022/03/15 06:32:08;;;;;;;27.83;14.55;;;;;;;5.06;100.00;102596.34;5074955;28;20044;-64
2022/03/15 06:34:58;;;;;;;25.90;14.70;;;;;;;5.06;100.00;102596.34;5075182;28;20131;-63
2022/03/15 06:37:30;;;;;;;29.45;14.85;;;;;;;5.09;100.00;102591.06;5074754;28;20048;-63
2022/03/15 06:40:03;;;;;;;26.45;15.13;;;;;;;5.10;100.00;102586.72;5074944;28;20429;-63
2022/03/15 06:42:32;;;;;;;25.55;14.77;;;;;;;5.14;100.00;102588.38;5074322;28;20522;-58
2022/03/15 06:45:01;;;;;;;28.25;14.93;;;;;;;5.15;100.00;102596.19;5074632;28;20044;-57
2022/03/15 06:47:32;;;;;;;27.05;15.35;;;;;;;5.19;100.00;102582.22;5074679;28;20053;-63
2022/03/15 06:50:04;;;;;;;26.83;15.00;;;;;;;5.22;100.00;102581.31;5074680;28;20049;-63
2022/03/15 06:52:36;;;;;;;27.60;15.43;;;;;;;5.23;100.00;102578.66;5074522;28;20048;-58
2022/03/15 06:55:05;;;;;;;26.58;15.52;;;;;;;5.25;100.00;102571.69;5074372;28;20040;-57
2022/03/15 06:57:34;;;;;;;26.60;14.98;;;;;;;5.24;100.00;102569.97;5074412;28;20040;-57
2022/03/15 07:00:03;;;;;;;29.45;16.33;;;;;;;5.32;100.00;102571.63;5074123;28;20131;-63
2022/03/15 07:02:31;;;;;;;25.42;15.85;;;;;;;5.30;100.00;102570.75;5074208;28;20093;-57
2022/03/15 07:05:02;;;;;;;24.05;14.45;;;;;;;5.34;100.00;102570.69;5074240;28;20457;-57
2022/03/15 07:07:30;;;;;;;27.02;14.93;;;;;;;5.34;100.00;102565.47;5074208;28;20041;-63
2022/03/15 07:10:01;;;;;;;25.33;14.63;;;;;;;5.39;100.00;102558.44;5073975;28;20371;-63
2022/03/15 07:12:32;;;;;;;25.50;13.85;;;;;;;5.43;100.00;102567.09;5074236;28;20041;-63
2022/03/15 07:15:00;;;;;;;22.90;14.00;;;;;;;5.44;100.00;102568.81;5073992;28;20052;-63
2022/03/15 07:17:30;;;;;;;22.33;14.60;;;;;;;5.47;100.00;102560.94;5073929;28;20127;-58
2022/03/15 07:20:04;;;;;;;23.85;13.90;;;;;;;5.48;100.00;102567.88;5074115;28;20437;-63
2022/03/15 07:22:33;;;;;;;23.42;14.57;;;;;;;5.52;100.00;102558.22;5073561;28;20044;-63
2022/03/15 07:25:05;;;;;;;24.37;12.97;;;;;;;5.56;100.00;102558.16;5073928;28;20056;-57
2022/03/15 07:27:33;;;;;;;21.33;13.30;;;;;;;5.57;100.00;102552.03;5073720;28;20449;-63
2022/03/15 07:30:03;;;;;;;23.27;13.55;;;;;;;5.63;100.00;102558.06;5072553;28;20052;-63
2022/03/15 07:32:32;;;;;;;20.70;12.40;;;;;;;5.64;100.00;102557.16;5073578;28;20044;-57
2022/03/15 07:35:00;;;;;;;21.98;12.40;;;;;;;5.67;100.00;102558.00;5073825;28;20090;-58
2022/03/15 07:37:30;;;;;;;25.20;13.30;;;;;;;5.65;100.00;102554.53;5073606;28;20098;-58
2022/03/15 07:40:02;;;;;;;22.23;12.00;;;;;;;5.71;100.00;102558.78;5073700;28;20044;-63
2022/03/15 07:42:30;;;;;;;21.33;11.90;;;;;;;5.74;100.00;102562.22;5073000;28;20052;-63
2022/03/15 07:44:58;;;;;;;21.10;12.82;;;;;;;5.79;100.00;102561.25;5073148;28;20081;-57
2022/03/15 07:47:26;;;;;;;18.35;11.60;;;;;;;5.85;100.00;102558.53;5073294;28;20045;-58
2022/03/15 07:49:54;;;;;;;19.45;12.32;;;;;;;5.86;100.00;102549.81;5073272;28;20458;-64
2022/03/15 07:52:22;;;;;;;17.80;11.48;;;;;;;5.92;100.00;102547.09;5073285;28;20055;-58
2022/03/15 07:54:52;;;;;;;20.45;11.80;;;;;;;5.95;100.00;102547.03;5073238;28;20102;-64
2022/03/15 07:57:20;;;;;;;20.65;11.88;;;;;;;5.99;100.00;102545.28;5073426;28;20053;-58
2022/03/15 07:59:48;;;;;;;17.25;11.05;;;;;;;6.05;100.00;102548.63;5072675;28;20044;-58
2022/03/15 08:02:17;;;;;;;22.58;11.30;;;;;;;6.12;100.00;102549.34;5072304;28;20533;-57
2022/03/15 08:04:45;;;;;;;19.95;10.98;;;;;;;6.22;100.00;102537.00;5072850;28;20119;-57
2022/03/15 08:07:13;;;;;;;16.05;9.73;;;;;;;6.23;100.00;102542.19;5072553;28;20134;-58
2022/03/15 08:09:41;;;;;;;17.98;10.98;;;;;;;6.28;100.00;102536.00;5072663;28;20433;-58
2022/03/15 08:12:11;;;;;;;16.52;10.07;;;;;;;6.30;100.00;102537.69;5072715;28;20499;-58
2022/03/15 08:14:39;;;;;;;19.98;11.52;;;;;;;6.37;100.00;102547.13;5072819;28;20153;-58
2022/03/15 08:17:07;;;;;;;21.80;10.73;;;;;;;6.40;100.00;102549.66;5073098;28;20125;-58
2022/03/15 08:19:35;;;;;;;20.92;11.60;;;;;;;6.42;100.00;102547.03;5072815;28;20044;-58
2022/03/15 08:22:04;;;;;;;19.02;10.65;;;;;;;6.46;100.00;102545.22;5072708;28;20079;-57
2022/03/15 08:24:32;;;;;;;21.65;11.00;;;;;;;6.42;100.00;102542.69;5072012;28;20044;-58
2022/03/15 08:27:01;;;;;;;18.55;10.80;;;;;;;6.48;100.00;102541.69;5071711;28;20507;-57
2022/03/15 08:29:32;;;;;;;17.40;10.63;;;;;;;6.53;100.00;102537.22;5057610;28;20052;-64
2022/03/15 08:32:03;;;;;;;20.63;10.18;;;;;;;6.58;100.00;102547.56;5052985;28;20049;-64
2022/03/15 08:34:32;;;;;;;16.58;9.95;;;;;;;6.67;100.00;102555.22;5052812;28;20120;-58
2022/03/15 08:37:01;;;;;;;18.00;9.73;;;;;;;6.73;100.00;102554.22;5057516;28;20049;-58
2022/03/15 08:39:29;;;;;;;19.60;9.65;;;;;;;6.65;100.00;102550.91;5064916;28;20056;-58
2022/03/15 08:41:57;;;;;;;16.63;9.73;;;;;;;6.67;100.00;102550.00;5067336;28;21774;-58
2022/03/15 08:44:26;;;;;;;19.52;9.73;;;;;;;6.75;100.00;102540.22;5067723;28;20426;-58
2022/03/15 08:46:55;;;;;;;14.02;8.82;;;;;;;6.82;100.00;102538.34;5072416;28;20048;-58
2022/03/15 08:49:23;;;;;;;16.70;9.70;;;;;;;6.94;100.00;102534.59;5071762;28;20059;-57
2022/03/15 08:51:52;;;;;;;14.57;8.57;;;;;;;7.00;100.00;102528.38;5071228;28;20116;-58
2022/03/15 08:54:20;;;;;;;18.02;10.30;;;;;;;6.99;100.00;102531.88;5072126;28;20047;-57
2022/03/15 08:56:49;;;;;;;18.90;10.18;;;;;;;7.04;100.00;102530.00;5070785;28;20044;-57
2022/03/15 08:59:17;;;;;;;16.15;9.80;;;;;;;7.09;100.00;102525.53;5072352;28;20098;-57
2022/03/15 09:01:45;;;;;;;16.25;9.02;;;;;;;7.12;100.00;102525.47;5072424;28;20101;-58
2022/03/15 09:04:15;;;;;;;18.45;9.30;;;;;;;7.21;100.00;102532.22;5070928;28;20106;-58
2022/03/15 09:06:43;;;;;;;16.08;9.60;;;;;;;7.28;100.00;102525.97;5072046;28;20695;-58
2022/03/15 09:09:11;;;;;;;17.23;9.25;;;;;;;7.40;100.00;102517.78;5071972;28;20450;-57
2022/03/15 09:11:39;;;;;;;17.23;9.80;;;;;;;7.44;100.00;102513.31;5072169;28;20546;-58
2022/03/15 09:14:08;;;;;;;20.38;9.48;;;;;;;7.51;100.00;102511.41;5072007;28;20087;-58
2022/03/15 09:16:36;;;;;;;19.85;9.43;;;;;;;7.56;100.00;102506.91;5071938;28;20040;-57
2022/03/15 09:19:04;;;;;;;16.77;9.32;;;;;;;7.58;100.00;102505.09;5071821;28;20047;-59
2022/03/15 09:21:34;;;;;;;17.73;9.00;;;;;;;7.60;100.00;102503.31;5071805;28;20044;-59
2022/03/15 09:24:02;;;;;;;17.90;8.80;;;;;;;7.74;100.00;102503.84;5071779;28;20096;-59
2022/03/15 09:26:30;;;;;;;15.18;8.98;;;;;;;7.76;100.00;102491.53;5071985;28;20475;-59
2022/03/15 09:28:58;;;;;;;19.00;8.85;;;;;;;7.80;100.00;102487.09;5071501;28;20403;-59
2022/03/15 09:31:26;;;;;;;16.48;10.05;;;;;;;7.81;100.00;102491.41;5071770;28;20044;-59
2022/03/15 09:33:54;;;;;;;19.45;9.52;;;;;;;7.88;100.00;102481.63;5070551;28;20053;-59
2022/03/15 09:36:23;;;;;;;17.42;10.13;;;;;;;7.96;100.00;102484.88;5072101;28;20097;-59
2022/03/15 09:38:52;;;;;;;19.38;10.43;;;;;;;7.98;100.00;102483.09;5071963;28;20101;-59
2022/03/15 09:41:21;;;;;;;18.70;8.82;;;;;;;8.05;100.00;102478.53;5071670;28;20037;-58
2022/03/15 09:43:53;;;;;;;15.85;9.38;;;;;;;8.07;100.00;102481.97;5071444;28;20530;-60
2022/03/15 09:46:22;;;;;;;14.32;8.40;;;;;;;8.13;100.00;102477.41;5071647;28;20048;-58
2022/03/15 09:49:11;;;;;;;16.77;8.50;;;;;;;8.26;99.69;102467.44;5070916;28;20037;-56
2022/03/15 09:51:39;;;;;;;15.32;9.02;;;;;;;8.29;99.31;102469.97;5071169;28;20128;-59
2022/03/15 09:54:12;;;;;;;17.38;9.27;;;;;;;8.40;99.50;102471.41;5074838;28;20041;-67
2022/03/15 09:56:47;;;;;;;16.30;8.80;;;;;;;8.45;99.82;102467.78;5075194;28;20048;-68
2022/03/15 09:59:17;;;;;;;19.05;8.52;;;;;;;8.55;99.13;102481.47;5075309;28;20045;-67
2022/03/15 10:01:50;;;;;;;15.45;8.52;;;;;;;8.57;99.01;102466.53;5075874;28;20052;-65
2022/03/15 10:04:18;;;;;;;15.35;7.93;;;;;;;8.68;97.20;102470.59;5075428;28;20048;-66
2022/03/15 10:06:47;;;;;;;13.57;8.25;;;;;;;8.79;96.34;102471.09;5075309;28;20036;-68
2022/03/15 10:09:17;;;;;;;13.90;7.82;;;;;;;8.80;96.78;102462.34;5075041;28;20126;-58
2022/03/15 10:11:45;;;;;;;15.60;9.18;;;;;;;8.81;97.71;102461.44;5075158;28;20056;-58
2022/03/15 10:14:13;;;;;;;16.67;8.73;;;;;;;8.84;97.74;102458.69;5075359;28;20055;-57
2022/03/15 10:16:43;;;;;;;14.77;8.15;;;;;;;8.86;97.32;102454.28;5075156;28;20047;-58
2022/03/15 10:19:13;;;;;;;14.73;8.35;;;;;;;9.01;96.16;102444.16;5074989;28;20044;-57
2022/03/15 10:21:45;;;;;;;16.27;8.35;;;;;;;9.06;96.44;102444.88;5075028;28;20044;-58
2022/03/15 10:24:18;;;;;;;13.82;7.88;;;;;;;9.12;96.26;102435.03;5074997;28;20051;-58
2022/03/15 10:26:48;;;;;;;15.35;7.75;;;;;;;9.25;94.58;102432.00;5075057;28;20487;-57
2022/03/15 10:29:17;;;;;;;14.73;8.02;;;;;;;9.33;94.23;102427.34;5074972;28;20044;-58
2022/03/15 10:31:46;;;;;;;15.57;8.00;;;;;;;9.40;93.01;102418.31;5074765;28;20056;-58
2022/03/15 10:34:17;;;;;;;13.27;7.60;;;;;;;9.44;92.59;102417.31;5075050;28;20484;-58
2022/03/15 10:36:51;;;;;;;17.38;8.50;;;;;;;9.49;93.66;102414.53;5075024;28;20047;-58
2022/03/15 10:39:21;;;;;;;16.75;7.15;;;;;;;9.63;92.06;102414.03;5074585;28;20044;-58
2022/03/15 10:41:52;;;;;;;15.38;7.65;;;;;;;9.71;92.26;102411.97;5073431;28;20048;-58
2022/03/15 10:44:23;;;;;;;16.45;7.95;;;;;;;9.81;91.37;102415.97;5074334;28;20057;-58
2022/03/15 10:47:04;;;;;;;15.90;7.65;;;;;;;9.86;91.02;102413.19;5074601;28;20117;-58
2022/03/15 10:49:34;;;;;;;14.73;7.15;;;;;;;9.89;90.39;102420.97;5074435;28;20094;-58
2022/03/15 10:52:02;;;;;;;16.88;7.97;;;;;;;9.94;90.58;102410.28;5074508;28;20091;-58
2022/03/15 10:54:31;;;;;;;12.60;7.25;;;;;;;9.99;90.67;102413.56;5074534;28;20476;-58
2022/03/15 10:57:00;;;;;;;13.73;7.28;;;;;;;9.97;89.79;102411.00;5073263;28;20059;-58
2022/03/15 10:59:28;;;;;;;14.82;7.05;;;;;;;10.01;90.04;102406.50;5074244;28;20048;-58
2022/03/15 11:01:57;;;;;;;12.35;7.10;;;;;;;10.05;91.05;102410.72;5074499;28;20044;-57
2022/03/15 11:04:26;;;;;;;17.92;8.10;;;;;;;10.12;90.08;102408.72;5073882;28;20476;-58
2022/03/15 11:06:55;;;;;;;13.43;7.68;;;;;;;10.21;89.82;102400.50;5074477;28;20063;-59
2022/03/15 11:09:24;;;;;;;15.48;7.32;;;;;;;10.30;87.88;102399.25;5074246;28;20106;-58
2022/03/15 11:12:00;;;;;;;15.90;7.45;;;;;;;10.33;86.27;102391.25;5074245;28;20136;-58
2022/03/15 11:14:32;;;;;;;13.25;6.68;;;;;;;10.40;85.99;102386.63;5074177;28;20040;-58
2022/03/15 11:17:02;;;;;;;13.73;7.50;;;;;;;10.42;85.93;102390.91;5074301;28;20052;-58
2022/03/15 11:19:37;;;;;;;14.68;7.40;;;;;;;10.44;86.49;102386.47;5073853;28;20053;-58
2022/03/15 11:22:06;;;;;;;14.77;8.27;;;;;;;10.56;88.23;102386.88;5073477;28;20055;-58
2022/03/15 11:24:39;;;;;;;16.60;7.25;;;;;;;10.56;82.61;102387.72;5073838;28;20127;-58